Sparkman, Arkansas
Current Conditions -  °F | °C
As of 7:41 AM on Tuesday 21 Oct 2014 (Local Time) from KADF Reporting Station
Moderate Fog Moderate Fog  
Wind Chill: 55°   Ceiling: Unl
Heat Index: 55°   Visibility: 0.5mi
Dew Point: 55°   Wind: 0mph
Humidity: 100%   Direction: NA
Pressure: 30.1"   Gusts: NA
Location:  33.92°N, 92.85°W
Report Text: KADF 211241Z AUTO 00000KT 1/2SM FG CLR 13/13 A3010 RMK AO2
Loading
Personal Weather Stations






























Interactive Weather Map
Tropical Storm Tracking
New forecast layout! Learn more

10-Day Weather Forecast

Advertisements
Track Severe Weather on mobile